sensor_id;sensor_type;location;lat;lon;timestamp;pressure;altitude;pressure_sealevel;temperature;humidity
55289;BME280;41154;45.394;5.734;2023-08-21T00:02:20;97391.84;;;21.24;100.00
55289;BME280;41154;45.394;5.734;2023-08-21T00:04:46;97393.69;;;21.37;100.00
55289;BME280;41154;45.394;5.734;2023-08-21T00:07:12;97389.63;;;21.26;100.00
55289;BME280;41154;45.394;5.734;2023-08-21T00:09:38;97392.50;;;21.30;100.00
55289;BME280;41154;45.394;5.734;2023-08-21T00:12:04;97387.94;;;21.16;100.00
55289;BME280;41154;45.394;5.734;2023-08-21T00:14:30;97400.72;;;21.07;100.00
55289;BME280;41154;45.394;5.734;2023-08-21T00:16:55;97392.34;;;21.04;100.00
55289;BME280;41154;45.394;5.734;2023-08-21T00:19:21;97397.28;;;21.01;100.00
55289;BME280;41154;45.394;5.734;2023-08-21T00:21:47;97403.28;;;20.90;100.00
55289;BME280;41154;45.394;5.734;2023-08-21T00:24:13;97405.19;;;20.89;100.00
55289;BME280;41154;45.394;5.734;2023-08-21T00:26:39;97407.16;;;20.75;100.00
55289;BME280;41154;45.394;5.734;2023-08-21T00:29:04;97402.50;;;20.61;100.00
55289;BME280;41154;45.394;5.734;2023-08-21T00:31:31;97404.75;;;20.73;100.00
55289;BME280;41154;45.394;5.734;2023-08-21T00:33:57;97399.47;;;20.77;100.00
55289;BME280;41154;45.394;5.734;2023-08-21T00:36:23;97402.63;;;20.70;100.00
55289;BME280;41154;45.394;5.734;2023-08-21T00:38:49;97389.78;;;20.71;100.00
55289;BME280;41154;45.394;5.734;2023-08-21T00:41:14;97389.91;;;20.65;100.00
55289;BME280;41154;45.394;5.734;2023-08-21T00:43:40;97403.63;;;20.74;100.00
55289;BME280;41154;45.394;5.734;2023-08-21T00:46:06;97402.19;;;20.77;100.00
55289;BME280;41154;45.394;5.734;2023-08-21T00:48:33;97402.91;;;20.55;100.00
55289;BME280;41154;45.394;5.734;2023-08-21T00:51:00;97400.06;;;20.60;100.00
55289;BME280;41154;45.394;5.734;2023-08-21T00:53:27;97404.53;;;20.56;100.00
55289;BME280;41154;45.394;5.734;2023-08-21T00:55:53;97403.81;;;20.64;100.00
55289;BME280;41154;45.394;5.734;2023-08-21T00:58:19;97407.78;;;20.72;100.00
55289;BME280;41154;45.394;5.734;2023-08-21T01:00:46;97403.84;;;20.50;100.00
55289;BME280;41154;45.394;5.734;2023-08-21T01:03:13;97404.44;;;20.33;100.00
55289;BME280;41154;45.394;5.734;2023-08-21T01:05:41;97406.38;;;20.46;100.00
55289;BME280;41154;45.394;5.734;2023-08-21T01:08:14;97400.03;;;20.37;100.00
55289;BME280;41154;45.394;5.734;2023-08-21T01:11:08;97413.75;;;20.18;100.00
55289;BME280;41154;45.394;5.734;2023-08-21T01:14:03;97414.13;;;20.25;100.00
55289;BME280;41154;45.394;5.734;2023-08-21T01:16:32;97413.75;;;20.18;100.00
55289;BME280;41154;45.394;5.734;2023-08-21T01:18:59;97408.00;;;20.06;100.00
55289;BME280;41154;45.394;5.734;2023-08-21T01:21:27;97410.56;;;19.83;100.00
55289;BME280;41154;45.394;5.734;2023-08-21T01:23:53;97413.03;;;19.99;100.00
55289;BME280;41154;45.394;5.734;2023-08-21T01:26:19;97419.50;;;20.03;100.00
55289;BME280;41154;45.394;5.734;2023-08-21T01:28:45;97425.94;;;20.07;100.00
55289;BME280;41154;45.394;5.734;2023-08-21T01:31:30;97416.75;;;20.03;100.00
55289;BME280;41154;45.394;5.734;2023-08-21T01:34:01;97425.13;;;20.06;100.00
55289;BME280;41154;45.394;5.734;2023-08-21T01:36:32;97421.91;;;20.04;100.00
55289;BME280;41154;45.394;5.734;2023-08-21T01:39:00;97422.72;;;20.05;100.00
55289;BME280;41154;45.394;5.734;2023-08-21T01:41:27;97424.91;;;19.89;100.00
55289;BME280;41154;45.394;5.734;2023-08-21T01:43:53;97432.59;;;19.87;100.00
55289;BME280;41154;45.394;5.734;2023-08-21T01:46:19;97430.56;;;19.92;100.00
55289;BME280;41154;45.394;5.734;2023-08-21T01:48:45;97425.25;;;20.01;100.00
55289;BME280;41154;45.394;5.734;2023-08-21T01:51:11;97438.56;;;20.03;100.00
55289;BME280;41154;45.394;5.734;2023-08-21T01:53:37;97430.19;;;19.99;100.00
55289;BME280;41154;45.394;5.734;2023-08-21T01:56:02;97433.41;;;20.01;100.00
55289;BME280;41154;45.394;5.734;2023-08-21T01:58:28;97434.41;;;19.91;100.00
55289;BME280;41154;45.394;5.734;2023-08-21T02:00:54;97423.22;;;19.93;100.00
55289;BME280;41154;45.394;5.734;2023-08-21T02:03:20;97434.78;;;19.85;100.00
55289;BME280;41154;45.394;5.734;2023-08-21T02:05:45;97425.94;;;19.74;100.00
55289;BME280;41154;45.394;5.734;2023-08-21T02:08:14;97427.25;;;19.63;100.00
55289;BME280;41154;45.394;5.734;2023-08-21T02:10:50;97430.03;;;19.77;100.00
55289;BME280;41154;45.394;5.734;2023-08-21T02:13:16;97432.28;;;19.69;100.00
55289;BME280;41154;45.394;5.734;2023-08-21T02:15:41;97432.38;;;19.64;100.00
55289;BME280;41154;45.394;5.734;2023-08-21T02:18:07;97429.81;;;19.40;100.00
55289;BME280;41154;45.394;5.734;2023-08-21T02:20:33;97438.09;;;19.49;100.00
55289;BME280;41154;45.394;5.734;2023-08-21T02:22:59;97433.25;;;19.46;100.00
55289;BME280;41154;45.394;5.734;2023-08-21T02:25:24;97436.03;;;19.40;100.00
55289;BME280;41154;45.394;5.734;2023-08-21T02:27:50;97424.88;;;19.42;100.00
55289;BME280;41154;45.394;5.734;2023-08-21T02:30:16;97425.91;;;19.60;100.00
55289;BME280;41154;45.394;5.734;2023-08-21T02:32:42;97422.00;;;19.33;100.00
55289;BME280;41154;45.394;5.734;2023-08-21T02:35:08;97428.97;;;19.39;100.00
55289;BME280;41154;45.394;5.734;2023-08-21T02:37:34;97423.72;;;19.29;100.00
55289;BME280;41154;45.394;5.734;2023-08-21T02:40:05;97424.56;;;19.44;100.00
55289;BME280;41154;45.394;5.734;2023-08-21T02:42:33;97431.59;;;19.31;100.00
55289;BME280;41154;45.394;5.734;2023-08-21T02:45:00;97422.03;;;19.14;100.00
55289;BME280;41154;45.394;5.734;2023-08-21T02:47:30;97426.69;;;19.14;100.00
55289;BME280;41154;45.394;5.734;2023-08-21T02:49:55;97429.41;;;19.14;100.00
55289;BME280;41154;45.394;5.734;2023-08-21T02:52:21;97428.72;;;19.22;100.00
55289;BME280;41154;45.394;5.734;2023-08-21T02:54:47;97422.19;;;19.23;100.00
55289;BME280;41154;45.394;5.734;2023-08-21T02:57:13;97431.44;;;19.22;100.00
55289;BME280;41154;45.394;5.734;2023-08-21T02:59:38;97442.41;;;19.17;100.00
55289;BME280;41154;45.394;5.734;2023-08-21T03:02:04;97441.16;;;19.09;100.00
55289;BME280;41154;45.394;5.734;2023-08-21T03:04:30;97431.34;;;19.27;100.00
55289;BME280;41154;45.394;5.734;2023-08-21T03:06:55;97434.09;;;19.08;100.00
55289;BME280;41154;45.394;5.734;2023-08-21T03:09:21;97436.91;;;19.03;100.00
55289;BME280;41154;45.394;5.734;2023-08-21T03:11:47;97435.72;;;18.90;100.00
55289;BME280;41154;45.394;5.734;2023-08-21T03:14:16;97435.13;;;18.93;100.00
55289;BME280;41154;45.394;5.734;2023-08-21T03:16:42;97430.91;;;19.01;100.00
55289;BME280;41154;45.394;5.734;2023-08-21T03:19:09;97430.88;;;19.06;100.00
55289;BME280;41154;45.394;5.734;2023-08-21T03:21:35;97434.44;;;19.20;100.00
55289;BME280;41154;45.394;5.734;2023-08-21T03:24:01;97432.13;;;19.14;100.00
55289;BME280;41154;45.394;5.734;2023-08-21T03:26:27;97435.19;;;19.07;100.00
55289;BME280;41154;45.394;5.734;2023-08-21T03:28:54;97442.34;;;19.03;100.00
55289;BME280;41154;45.394;5.734;2023-08-21T03:31:20;97431.66;;;18.88;100.00
55289;BME280;41154;45.394;5.734;2023-08-21T03:33:46;97429.75;;;18.88;100.00
55289;BME280;41154;45.394;5.734;2023-08-21T03:36:13;97424.38;;;18.83;100.00
55289;BME280;41154;45.394;5.734;2023-08-21T03:38:40;97433.19;;;18.75;100.00
55289;BME280;41154;45.394;5.734;2023-08-21T03:41:06;97438.03;;;18.78;100.00
55289;BME280;41154;45.394;5.734;2023-08-21T03:43:33;97436.91;;;18.79;100.00
55289;BME280;41154;45.394;5.734;2023-08-21T03:45:59;97435.44;;;18.67;100.00
55289;BME280;41154;45.394;5.734;2023-08-21T03:48:24;97439.19;;;18.72;100.00
55289;BME280;41154;45.394;5.734;2023-08-21T03:50:50;97445.34;;;18.77;100.00
55289;BME280;41154;45.394;5.734;2023-08-21T03:53:18;97444.25;;;18.78;100.00
55289;BME280;41154;45.394;5.734;2023-08-21T03:55:44;97445.41;;;18.53;100.00
55289;BME280;41154;45.394;5.734;2023-08-21T03:58:10;97441.81;;;18.58;100.00
55289;BME280;41154;45.394;5.734;2023-08-21T04:00:36;97439.78;;;18.68;100.00
55289;BME280;41154;45.394;5.734;2023-08-21T04:03:02;97442.72;;;18.72;100.00
55289;BME280;41154;45.394;5.734;2023-08-21T04:05:28;97444.19;;;18.64;100.00
55289;BME280;41154;45.394;5.734;2023-08-21T04:07:54;97446.34;;;18.43;100.00
55289;BME280;41154;45.394;5.734;2023-08-21T04:10:19;97448.13;;;18.53;100.00
55289;BME280;41154;45.394;5.734;2023-08-21T04:12:46;97458.44;;;18.51;100.00
55289;BME280;41154;45.394;5.734;2023-08-21T04:15:12;97450.47;;;18.60;100.00
55289;BME280;41154;45.394;5.734;2023-08-21T04:17:38;97451.28;;;18.60;100.00
55289;BME280;41154;45.394;5.734;2023-08-21T04:20:04;97450.78;;;18.58;100.00
55289;BME280;41154;45.394;5.734;2023-08-21T04:22:29;97454.72;;;18.47;100.00
55289;BME280;41154;45.394;5.734;2023-08-21T04:24:55;97462.56;;;18.48;100.00
55289;BME280;41154;45.394;5.734;2023-08-21T04:27:21;97458.81;;;18.44;100.00
55289;BME280;41154;45.394;5.734;2023-08-21T04:29:47;97456.09;;;18.44;100.00
55289;BME280;41154;45.394;5.734;2023-08-21T04:32:13;97451.53;;;18.40;100.00
55289;BME280;41154;45.394;5.734;2023-08-21T04:34:40;97464.91;;;18.36;100.00
55289;BME280;41154;45.394;5.734;2023-08-21T04:37:05;97459.16;;;18.38;100.00
55289;BME280;41154;45.394;5.734;2023-08-21T04:39:31;97464.13;;;18.30;100.00
55289;BME280;41154;45.394;5.734;2023-08-21T04:41:57;97465.19;;;18.35;100.00
55289;BME280;41154;45.394;5.734;2023-08-21T04:44:23;97470.47;;;18.45;100.00
55289;BME280;41154;45.394;5.734;2023-08-21T04:46:49;97475.63;;;18.46;100.00
55289;BME280;41154;45.394;5.734;2023-08-21T04:49:16;97486.19;;;18.48;100.00
55289;BME280;41154;45.394;5.734;2023-08-21T04:51:42;97488.97;;;18.43;100.00
55289;BME280;41154;45.394;5.734;2023-08-21T04:54:08;97472.53;;;18.34;100.00
55289;BME280;41154;45.394;5.734;2023-08-21T04:56:34;97477.75;;;18.49;100.00
55289;BME280;41154;45.394;5.734;2023-08-21T04:59:01;97478.59;;;18.50;100.00
55289;BME280;41154;45.394;5.734;2023-08-21T05:01:29;97489.03;;;18.38;100.00
55289;BME280;41154;45.394;5.734;2023-08-21T05:03:56;97485.75;;;18.41;100.00
55289;BME280;41154;45.394;5.734;2023-08-21T05:06:23;97493.69;;;18.37;100.00
55289;BME280;41154;45.394;5.734;2023-08-21T05:08:49;97487.59;;;18.45;100.00
55289;BME280;41154;45.394;5.734;2023-08-21T05:11:15;97492.69;;;18.52;100.00
55289;BME280;41154;45.394;5.734;2023-08-21T05:13:42;97490.75;;;18.53;100.00
55289;BME280;41154;45.394;5.734;2023-08-21T05:16:10;97496.88;;;18.63;100.00
55289;BME280;41154;45.394;5.734;2023-08-21T05:18:38;97498.69;;;18.73;100.00
55289;BME280;41154;45.394;5.734;2023-08-21T05:21:04;97500.16;;;18.65;100.00
55289;BME280;41154;45.394;5.734;2023-08-21T05:23:30;97493.97;;;18.79;100.00
55289;BME280;41154;45.394;5.734;2023-08-21T05:26:01;97506.03;;;18.73;100.00
55289;BME280;41154;45.394;5.734;2023-08-21T05:28:27;97506.56;;;18.75;100.00
55289;BME280;41154;45.394;5.734;2023-08-21T05:30:53;97502.69;;;18.81;100.00
55289;BME280;41154;45.394;5.734;2023-08-21T05:33:20;97504.63;;;18.75;100.00
55289;BME280;41154;45.394;5.734;2023-08-21T05:35:48;97505.91;;;18.83;100.00
55289;BME280;41154;45.394;5.734;2023-08-21T05:38:14;97513.38;;;18.72;100.00
55289;BME280;41154;45.394;5.734;2023-08-21T05:40:43;97511.53;;;18.67;100.00
55289;BME280;41154;45.394;5.734;2023-08-21T05:43:09;97517.03;;;18.62;100.00
55289;BME280;41154;45.394;5.734;2023-08-21T05:45:37;97515.47;;;18.56;100.00
55289;BME280;41154;45.394;5.734;2023-08-21T05:48:04;97514.75;;;18.69;100.00
55289;BME280;41154;45.394;5.734;2023-08-21T05:50:30;97518.00;;;18.72;100.00
55289;BME280;41154;45.394;5.734;2023-08-21T05:52:55;97522.88;;;18.75;100.00
55289;BME280;41154;45.394;5.734;2023-08-21T05:55:23;97511.75;;;18.95;100.00
55289;BME280;41154;45.394;5.734;2023-08-21T05:57:50;97525.44;;;18.90;100.00
55289;BME280;41154;45.394;5.734;2023-08-21T06:00:19;97520.22;;;19.13;100.00
55289;BME280;41154;45.394;5.734;2023-08-21T06:02:44;97526.34;;;19.24;100.00
55289;BME280;41154;45.394;5.734;2023-08-21T06:05:21;97525.63;;;19.37;100.00
55289;BME280;41154;45.394;5.734;2023-08-21T06:07:50;97523.91;;;19.41;100.00
55289;BME280;41154;45.394;5.734;2023-08-21T06:10:17;97522.88;;;19.37;100.00
55289;BME280;41154;45.394;5.734;2023-08-21T06:12:43;97526.69;;;20.95;100.00
55289;BME280;41154;45.394;5.734;2023-08-21T06:15:10;97539.09;;;24.19;100.00
55289;BME280;41154;45.394;5.734;2023-08-21T06:17:36;97534.31;;;25.86;99.66
55289;BME280;41154;45.394;5.734;2023-08-21T06:20:03;97541.44;;;26.91;92.64
55289;BME280;41154;45.394;5.734;2023-08-21T06:22:32;97539.38;;;28.35;82.42
55289;BME280;41154;45.394;5.734;2023-08-21T06:24:57;97539.75;;;28.65;78.92
55289;BME280;41154;45.394;5.734;2023-08-21T06:27:23;97548.44;;;29.31;75.10
55289;BME280;41154;45.394;5.734;2023-08-21T06:29:49;97537.78;;;30.07;72.40
55289;BME280;41154;45.394;5.734;2023-08-21T06:32:15;97546.44;;;29.83;70.35
55289;BME280;41154;45.394;5.734;2023-08-21T06:34:41;97538.38;;;29.77;70.54
55289;BME280;41154;45.394;5.734;2023-08-21T06:37:08;97542.06;;;30.24;67.81
55289;BME280;41154;45.394;5.734;2023-08-21T06:39:34;97556.56;;;29.08;72.96
55289;BME280;41154;45.394;5.734;2023-08-21T06:42:04;97550.22;;;28.27;76.65
55289;BME280;41154;45.394;5.734;2023-08-21T06:44:40;97546.75;;;28.30;76.08
55289;BME280;41154;45.394;5.734;2023-08-21T06:47:06;97543.84;;;28.87;75.89
55289;BME280;41154;45.394;5.734;2023-08-21T06:49:32;97553.75;;;31.30;66.88
55289;BME280;41154;45.394;5.734;2023-08-21T06:51:58;97552.09;;;30.75;63.94
55289;BME280;41154;45.394;5.734;2023-08-21T06:54:24;97551.38;;;31.02;66.70
55289;BME280;41154;45.394;5.734;2023-08-21T06:56:50;97551.34;;;31.85;63.04
55289;BME280;41154;45.394;5.734;2023-08-21T06:59:16;97548.72;;;31.66;63.73
55289;BME280;41154;45.394;5.734;2023-08-21T07:01:42;97551.56;;;31.43;63.43
55289;BME280;41154;45.394;5.734;2023-08-21T07:04:07;97554.50;;;31.84;61.42
55289;BME280;41154;45.394;5.734;2023-08-21T07:06:33;97545.59;;;32.01;60.29
55289;BME280;41154;45.394;5.734;2023-08-21T07:08:59;97541.50;;;31.58;62.00
55289;BME280;41154;45.394;5.734;2023-08-21T07:11:25;97548.13;;;32.96;59.04
55289;BME280;41154;45.394;5.734;2023-08-21T07:13:50;97542.59;;;31.83;62.78
55289;BME280;41154;45.394;5.734;2023-08-21T07:16:16;97542.44;;;32.37;60.61
55289;BME280;41154;45.394;5.734;2023-08-21T07:18:42;97543.31;;;32.45;60.73
55289;BME280;41154;45.394;5.734;2023-08-21T07:21:07;97543.69;;;32.43;59.37
55289;BME280;41154;45.394;5.734;2023-08-21T07:23:33;97535.22;;;32.70;60.14
55289;BME280;41154;45.394;5.734;2023-08-21T07:26:00;97538.44;;;34.12;55.20
55289;BME280;41154;45.394;5.734;2023-08-21T07:28:26;97544.19;;;33.63;54.59
55289;BME280;41154;45.394;5.734;2023-08-21T07:30:58;97537.34;;;35.39;49.64
55289;BME280;41154;45.394;5.734;2023-08-21T07:33:25;97543.13;;;33.16;55.74
55289;BME280;41154;45.394;5.734;2023-08-21T07:36:01;97529.44;;;34.76;54.97
55289;BME280;41154;45.394;5.734;2023-08-21T07:38:27;97538.97;;;35.25;50.23
55289;BME280;41154;45.394;5.734;2023-08-21T07:41:07;97536.16;;;34.68;51.89
55289;BME280;41154;45.394;5.734;2023-08-21T07:43:36;97542.47;;;36.99;44.23
55289;BME280;41154;45.394;5.734;2023-08-21T07:46:06;97540.28;;;37.94;42.67
55289;BME280;41154;45.394;5.734;2023-08-21T07:48:32;97533.41;;;34.64;48.66
55289;BME280;41154;45.394;5.734;2023-08-21T07:50:58;97533.41;;;36.88;44.08
55289;BME280;41154;45.394;5.734;2023-08-21T07:53:25;97544.63;;;37.99;41.91
55289;BME280;41154;45.394;5.734;2023-08-21T07:55:51;97540.09;;;36.45;43.47
55289;BME280;41154;45.394;5.734;2023-08-21T07:58:17;97539.25;;;35.67;45.63
55289;BME280;41154;45.394;5.734;2023-08-21T08:01:17;97529.50;;;36.11;44.92
55289;BME280;41154;45.394;5.734;2023-08-21T08:03:43;97529.19;;;35.95;45.59
55289;BME280;41154;45.394;5.734;2023-08-21T08:06:09;97532.75;;;36.66;46.26
55289;BME280;41154;45.394;5.734;2023-08-21T08:08:34;97528.25;;;36.27;47.05
55289;BME280;41154;45.394;5.734;2023-08-21T08:11:03;97530.53;;;35.51;46.32
55289;BME280;41154;45.394;5.734;2023-08-21T08:13:39;97531.00;;;35.13;49.55
55289;BME280;41154;45.394;5.734;2023-08-21T08:16:05;97528.53;;;35.55;50.91
55289;BME280;41154;45.394;5.734;2023-08-21T08:18:34;97539.63;;;36.58;48.91
55289;BME280;41154;45.394;5.734;2023-08-21T08:20:59;97532.13;;;36.40;45.27
55289;BME280;41154;45.394;5.734;2023-08-21T08:23:25;97530.44;;;36.53;48.41
55289;BME280;41154;45.394;5.734;2023-08-21T08:25:51;97525.34;;;36.41;44.33
55289;BME280;41154;45.394;5.734;2023-08-21T08:28:16;97521.88;;;36.19;44.13
55289;BME280;41154;45.394;5.734;2023-08-21T08:30:42;97522.56;;;38.04;41.53
55289;BME280;41154;45.394;5.734;2023-08-21T08:33:08;97515.59;;;38.16;42.23
55289;BME280;41154;45.394;5.734;2023-08-21T08:35:34;97513.97;;;36.70;42.32
55289;BME280;41154;45.394;5.734;2023-08-21T08:41:48;97515.47;;;36.85;40.89
55289;BME280;41154;45.394;5.734;2023-08-21T08:44:17;97513.41;;;37.69;45.64
55289;BME280;41154;45.394;5.734;2023-08-21T08:46:42;97503.47;;;36.29;43.71
55289;BME280;41154;45.394;5.734;2023-08-21T08:49:09;97503.63;;;37.50;44.46
55289;BME280;41154;45.394;5.734;2023-08-21T08:51:35;97496.81;;;37.51;44.80
55289;BME280;41154;45.394;5.734;2023-08-21T08:54:03;97495.88;;;38.51;43.89
55289;BME280;41154;45.394;5.734;2023-08-21T08:56:29;97501.00;;;38.56;40.35
55289;BME280;41154;45.394;5.734;2023-08-21T08:58:55;97490.94;;;37.76;44.79
55289;BME280;41154;45.394;5.734;2023-08-21T09:01:21;97490.38;;;38.20;42.52
55289;BME280;41154;45.394;5.734;2023-08-21T09:03:46;97489.84;;;38.52;39.38
55289;BME280;41154;45.394;5.734;2023-08-21T09:06:15;97487.13;;;40.69;36.69
55289;BME280;41154;45.394;5.734;2023-08-21T09:08:53;97492.59;;;41.52;34.17
55289;BME280;41154;45.394;5.734;2023-08-21T09:11:19;97482.19;;;40.57;38.93
55289;BME280;41154;45.394;5.734;2023-08-21T09:13:45;97489.25;;;39.76;35.79
55289;BME280;41154;45.394;5.734;2023-08-21T09:16:12;97481.97;;;38.94;40.99
55289;BME280;41154;45.394;5.734;2023-08-21T09:18:46;97482.16;;;38.33;41.55
55289;BME280;41154;45.394;5.734;2023-08-21T09:21:16;97476.88;;;37.46;42.48
55289;BME280;41154;45.394;5.734;2023-08-21T09:23:41;97472.22;;;39.83;37.01
55289;BME280;41154;45.394;5.734;2023-08-21T09:26:07;97469.97;;;36.29;42.26
55289;BME280;41154;45.394;5.734;2023-08-21T09:28:34;97470.78;;;36.22;41.66
55289;BME280;41154;45.394;5.734;2023-08-21T09:31:00;97463.31;;;34.98;47.36
55289;BME280;41154;45.394;5.734;2023-08-21T09:33:27;97465.72;;;34.67;45.33
55289;BME280;41154;45.394;5.734;2023-08-21T09:35:54;97467.34;;;34.76;46.64
55289;BME280;41154;45.394;5.734;2023-08-21T09:38:21;97466.94;;;34.88;44.34
55289;BME280;41154;45.394;5.734;2023-08-21T09:40:54;97472.44;;;34.05;45.01
55289;BME280;41154;45.394;5.734;2023-08-21T09:43:22;97468.78;;;33.83;44.80
55289;BME280;41154;45.394;5.734;2023-08-21T09:45:50;97464.88;;;34.20;48.09
55289;BME280;41154;45.394;5.734;2023-08-21T09:48:27;97465.69;;;34.74;44.77
55289;BME280;41154;45.394;5.734;2023-08-21T09:50:53;97460.97;;;34.43;50.85
55289;BME280;41154;45.394;5.734;2023-08-21T09:53:22;97460.16;;;34.82;47.38
55289;BME280;41154;45.394;5.734;2023-08-21T09:56:00;97458.34;;;33.58;46.46
55289;BME280;41154;45.394;5.734;2023-08-21T09:58:28;97461.53;;;32.87;49.02
55289;BME280;41154;45.394;5.734;2023-08-21T10:00:57;97457.66;;;33.90;48.33
55289;BME280;41154;45.394;5.734;2023-08-21T10:03:23;97456.78;;;33.64;47.70
55289;BME280;41154;45.394;5.734;2023-08-21T10:05:49;97457.34;;;34.28;48.87
55289;BME280;41154;45.394;5.734;2023-08-21T10:08:22;97450.66;;;33.26;47.95
55289;BME280;41154;45.394;5.734;2023-08-21T10:10:49;97440.06;;;33.57;49.12
55289;BME280;41154;45.394;5.734;2023-08-21T10:13:14;97434.59;;;33.86;46.55
55289;BME280;41154;45.394;5.734;2023-08-21T10:15:41;97429.13;;;34.29;46.52
55289;BME280;41154;45.394;5.734;2023-08-21T10:18:18;97429.03;;;33.82;48.75
55289;BME280;41154;45.394;5.734;2023-08-21T10:20:45;97434.66;;;33.05;49.49
55289;BME280;41154;45.394;5.734;2023-08-21T10:23:32;97429.03;;;33.86;49.52
55289;BME280;41154;45.394;5.734;2023-08-21T10:25:59;97423.84;;;33.77;52.45
55289;BME280;41154;45.394;5.734;2023-08-21T10:28:25;97428.59;;;33.73;48.87
55289;BME280;41154;45.394;5.734;2023-08-21T10:31:35;97421.88;;;33.74;49.28
55289;BME280;41154;45.394;5.734;2023-08-21T10:34:03;97427.06;;;33.94;49.67
55289;BME280;41154;45.394;5.734;2023-08-21T10:39:19;97421.13;;;33.99;49.84
55289;BME280;41154;45.394;5.734;2023-08-21T10:49:54;97409.06;;;33.55;51.95
55289;BME280;41154;45.394;5.734;2023-08-21T10:52:26;97418.19;;;33.52;51.50
55289;BME280;41154;45.394;5.734;2023-08-21T10:54:57;97419.34;;;33.40;51.79
55289;BME280;41154;45.394;5.734;2023-08-21T10:57:25;97413.69;;;33.19;52.63
55289;BME280;41154;45.394;5.734;2023-08-21T11:02:17;97408.31;;;33.69;51.66
55289;BME280;41154;45.394;5.734;2023-08-21T11:04:43;97408.00;;;33.99;52.96
55289;BME280;41154;45.394;5.734;2023-08-21T11:07:10;97397.91;;;33.48;51.58
55289;BME280;41154;45.394;5.734;2023-08-21T11:09:36;97394.00;;;33.71;52.21
55289;BME280;41154;45.394;5.734;2023-08-21T11:12:07;97401.00;;;33.28;52.42
55289;BME280;41154;45.394;5.734;2023-08-21T11:14:33;97397.44;;;33.28;51.49
55289;BME280;41154;45.394;5.734;2023-08-21T11:17:00;97395.50;;;33.39;50.92
55289;BME280;41154;45.394;5.734;2023-08-21T11:19:26;97392.38;;;33.62;49.97
55289;BME280;41154;45.394;5.734;2023-08-21T11:21:52;97390.09;;;34.00;49.59
55289;BME280;41154;45.394;5.734;2023-08-21T11:24:17;97392.09;;;34.07;48.62
55289;BME280;41154;45.394;5.734;2023-08-21T11:26:44;97396.84;;;33.99;49.03
55289;BME280;41154;45.394;5.734;2023-08-21T11:29:10;97392.50;;;34.13;49.57
55289;BME280;41154;45.394;5.734;2023-08-21T11:31:36;97385.34;;;34.12;49.05
55289;BME280;41154;45.394;5.734;2023-08-21T11:34:02;97394.88;;;34.21;49.38
55289;BME280;41154;45.394;5.734;2023-08-21T11:36:28;97386.97;;;34.27;49.22
55289;BME280;41154;45.394;5.734;2023-08-21T11:39:01;97386.53;;;34.32;49.13
55289;BME280;41154;45.394;5.734;2023-08-21T11:41:29;97381.34;;;34.09;51.06
55289;BME280;41154;45.394;5.734;2023-08-21T11:44:02;97391.66;;;33.80;47.66
55289;BME280;41154;45.394;5.734;2023-08-21T11:46:29;97387.59;;;33.56;47.98
55289;BME280;41154;45.394;5.734;2023-08-21T11:48:55;97384.50;;;33.79;48.32
55289;BME280;41154;45.394;5.734;2023-08-21T11:51:21;97378.09;;;33.60;48.64
55289;BME280;41154;45.394;5.734;2023-08-21T11:53:47;97368.63;;;33.90;46.20
55289;BME280;41154;45.394;5.734;2023-08-21T11:56:17;97373.00;;;34.16;44.55
55289;BME280;41154;45.394;5.734;2023-08-21T11:58:45;97372.53;;;33.67;42.42
55289;BME280;41154;45.394;5.734;2023-08-21T12:01:16;97372.91;;;33.62;43.46
55289;BME280;41154;45.394;5.734;2023-08-21T12:03:43;97367.41;;;33.73;45.25
55289;BME280;41154;45.394;5.734;2023-08-21T12:06:11;97361.44;;;33.71;45.24
55289;BME280;41154;45.394;5.734;2023-08-21T12:08:38;97361.84;;;33.80;44.25
55289;BME280;41154;45.394;5.734;2023-08-21T12:11:04;97364.63;;;33.98;43.59
55289;BME280;41154;45.394;5.734;2023-08-21T12:13:30;97364.25;;;34.03;45.07
55289;BME280;41154;45.394;5.734;2023-08-21T12:15:56;97361.44;;;33.78;45.07
55289;BME280;41154;45.394;5.734;2023-08-21T12:18:23;97358.69;;;34.00;45.46
55289;BME280;41154;45.394;5.734;2023-08-21T12:20:49;97356.69;;;33.82;44.44
55289;BME280;41154;45.394;5.734;2023-08-21T12:23:17;97350.34;;;34.03;44.07
55289;BME280;41154;45.394;5.734;2023-08-21T12:25:43;97351.91;;;34.15;45.20
55289;BME280;41154;45.394;5.734;2023-08-21T12:28:11;97344.38;;;34.16;44.47
55289;BME280;41154;45.394;5.734;2023-08-21T12:30:36;97347.97;;;34.02;44.93
55289;BME280;41154;45.394;5.734;2023-08-21T12:33:02;97348.34;;;34.08;43.52
55289;BME280;41154;45.394;5.734;2023-08-21T12:35:28;97344.78;;;33.93;45.12
55289;BME280;41154;45.394;5.734;2023-08-21T12:37:57;97347.16;;;34.19;43.43
55289;BME280;41154;45.394;5.734;2023-08-21T12:40:23;97341.19;;;34.14;43.36
55289;BME280;41154;45.394;5.734;2023-08-21T12:42:48;97340.81;;;33.97;43.05
55289;BME280;41154;45.394;5.734;2023-08-21T12:45:15;97338.41;;;34.17;42.63
55289;BME280;41154;45.394;5.734;2023-08-21T12:47:41;97338.78;;;34.23;43.16
55289;BME280;41154;45.394;5.734;2023-08-21T12:50:08;97335.22;;;34.44;44.37
55289;BME280;41154;45.394;5.734;2023-08-21T12:52:34;97334.41;;;34.33;42.70
55289;BME280;41154;45.394;5.734;2023-08-21T12:54:59;97331.25;;;34.02;44.06
55289;BME280;41154;45.394;5.734;2023-08-21T12:57:29;97334.81;;;33.84;44.01
55289;BME280;41154;45.394;5.734;2023-08-21T12:59:54;97329.25;;;34.17;44.56
55289;BME280;41154;45.394;5.734;2023-08-21T13:02:20;97328.06;;;34.39;44.75
55289;BME280;41154;45.394;5.734;2023-08-21T13:05:25;97326.88;;;34.33;43.35
55289;BME280;41154;45.394;5.734;2023-08-21T13:07:51;97332.78;;;34.68;43.48
55289;BME280;41154;45.394;5.734;2023-08-21T13:10:18;97328.03;;;34.54;42.58
55289;BME280;41154;45.394;5.734;2023-08-21T13:12:57;97322.44;;;34.61;42.25
55289;BME280;41154;45.394;5.734;2023-08-21T13:15:24;97317.69;;;34.54;42.98